sensor_id;sensor_type;location;lat;lon;timestamp;P1;durP1;ratioP1;P2;durP2;ratioP2
69305;SDS011;56427;51.580;4.656;2023-05-31T00:00:51;7.30;;;4.50;;
69305;SDS011;56427;51.580;4.656;2023-05-31T00:03:17;6.60;;;4.33;;
69305;SDS011;56427;51.580;4.656;2023-05-31T00:05:42;7.30;;;4.47;;
69305;SDS011;56427;51.580;4.656;2023-05-31T00:08:07;6.70;;;4.43;;
69305;SDS011;56427;51.580;4.656;2023-05-31T00:10:33;7.68;;;4.68;;
69305;SDS011;56427;51.580;4.656;2023-05-31T00:12:58;8.77;;;4.60;;
69305;SDS011;56427;51.580;4.656;2023-05-31T00:15:23;9.10;;;4.97;;
69305;SDS011;56427;51.580;4.656;2023-05-31T00:17:49;8.27;;;5.20;;
69305;SDS011;56427;51.580;4.656;2023-05-31T00:20:14;9.20;;;5.50;;
69305;SDS011;56427;51.580;4.656;2023-05-31T00:22:40;7.68;;;4.90;;
69305;SDS011;56427;51.580;4.656;2023-05-31T00:25:05;9.13;;;5.80;;
69305;SDS011;56427;51.580;4.656;2023-05-31T00:27:30;7.77;;;5.03;;
69305;SDS011;56427;51.580;4.656;2023-05-31T00:29:56;9.20;;;4.90;;
69305;SDS011;56427;51.580;4.656;2023-05-31T00:32:21;7.50;;;4.70;;
69305;SDS011;56427;51.580;4.656;2023-05-31T00:34:46;8.77;;;5.33;;
69305;SDS011;56427;51.580;4.656;2023-05-31T00:37:11;9.23;;;5.10;;
69305;SDS011;56427;51.580;4.656;2023-05-31T00:39:37;8.07;;;5.30;;
69305;SDS011;56427;51.580;4.656;2023-05-31T00:42:02;8.60;;;5.18;;
69305;SDS011;56427;51.580;4.656;2023-05-31T00:44:28;8.10;;;5.50;;
69305;SDS011;56427;51.580;4.656;2023-05-31T00:46:53;12.33;;;5.90;;
69305;SDS011;56427;51.580;4.656;2023-05-31T00:49:18;10.93;;;6.10;;
69305;SDS011;56427;51.580;4.656;2023-05-31T00:51:44;11.77;;;5.50;;
69305;SDS011;56427;51.580;4.656;2023-05-31T00:54:10;7.60;;;5.07;;
69305;SDS011;56427;51.580;4.656;2023-05-31T00:56:36;10.75;;;5.85;;
69305;SDS011;56427;51.580;4.656;2023-05-31T00:59:01;9.60;;;5.40;;
69305;SDS011;56427;51.580;4.656;2023-05-31T01:01:27;10.00;;;5.07;;
69305;SDS011;56427;51.580;4.656;2023-05-31T01:03:58;11.25;;;5.53;;
69305;SDS011;56427;51.580;4.656;2023-05-31T01:06:23;8.47;;;5.47;;
69305;SDS011;56427;51.580;4.656;2023-05-31T01:08:49;12.30;;;5.33;;
69305;SDS011;56427;51.580;4.656;2023-05-31T01:16:34;10.23;;;5.40;;
69305;SDS011;56427;51.580;4.656;2023-05-31T01:19:04;9.40;;;6.00;;
69305;SDS011;56427;51.580;4.656;2023-05-31T01:21:43;10.27;;;6.00;;
69305;SDS011;56427;51.580;4.656;2023-05-31T01:26:44;11.40;;;5.70;;
69305;SDS011;56427;51.580;4.656;2023-05-31T01:29:12;14.70;;;5.72;;
69305;SDS011;56427;51.580;4.656;2023-05-31T01:31:38;9.70;;;5.28;;
69305;SDS011;56427;51.580;4.656;2023-05-31T01:34:05;11.23;;;6.40;;
69305;SDS011;56427;51.580;4.656;2023-05-31T01:36:30;18.67;;;6.67;;
69305;SDS011;56427;51.580;4.656;2023-05-31T01:38:56;10.33;;;6.27;;
69305;SDS011;56427;51.580;4.656;2023-05-31T01:41:22;13.32;;;6.40;;
69305;SDS011;56427;51.580;4.656;2023-05-31T01:43:48;10.75;;;6.65;;
69305;SDS011;56427;51.580;4.656;2023-05-31T01:46:15;12.33;;;5.77;;
69305;SDS011;56427;51.580;4.656;2023-05-31T01:48:41;11.77;;;5.50;;
69305;SDS011;56427;51.580;4.656;2023-05-31T01:51:08;11.00;;;6.03;;
69305;SDS011;56427;51.580;4.656;2023-05-31T01:53:33;11.45;;;5.93;;
69305;SDS011;56427;51.580;4.656;2023-05-31T01:56:00;11.27;;;6.10;;
69305;SDS011;56427;51.580;4.656;2023-05-31T01:58:26;10.30;;;6.30;;
69305;SDS011;56427;51.580;4.656;2023-05-31T02:00:53;10.95;;;6.53;;
69305;SDS011;56427;51.580;4.656;2023-05-31T02:03:18;11.93;;;6.32;;
69305;SDS011;56427;51.580;4.656;2023-05-31T02:05:56;16.00;;;6.20;;
69305;SDS011;56427;51.580;4.656;2023-05-31T02:08:22;11.67;;;6.07;;
69305;SDS011;56427;51.580;4.656;2023-05-31T02:10:48;14.52;;;6.60;;
69305;SDS011;56427;51.580;4.656;2023-05-31T02:13:13;14.73;;;6.70;;
69305;SDS011;56427;51.580;4.656;2023-05-31T02:15:38;12.40;;;6.50;;
69305;SDS011;56427;51.580;4.656;2023-05-31T02:18:06;12.85;;;6.90;;
69305;SDS011;56427;51.580;4.656;2023-05-31T02:20:32;14.05;;;7.43;;
69305;SDS011;56427;51.580;4.656;2023-05-31T02:22:58;11.30;;;7.18;;
69305;SDS011;56427;51.580;4.656;2023-05-31T02:25:24;12.50;;;7.40;;
69305;SDS011;56427;51.580;4.656;2023-05-31T02:27:49;12.50;;;6.67;;
69305;SDS011;56427;51.580;4.656;2023-05-31T02:30:14;16.17;;;7.07;;
69305;SDS011;56427;51.580;4.656;2023-05-31T02:32:40;12.67;;;6.47;;
69305;SDS011;56427;51.580;4.656;2023-05-31T02:35:07;13.52;;;5.93;;
69305;SDS011;56427;51.580;4.656;2023-05-31T02:37:33;14.05;;;7.22;;
69305;SDS011;56427;51.580;4.656;2023-05-31T02:39:58;13.20;;;7.63;;
69305;SDS011;56427;51.580;4.656;2023-05-31T02:42:24;12.20;;;7.87;;
69305;SDS011;56427;51.580;4.656;2023-05-31T02:44:49;12.93;;;7.50;;
69305;SDS011;56427;51.580;4.656;2023-05-31T02:47:14;14.33;;;7.93;;
69305;SDS011;56427;51.580;4.656;2023-05-31T02:49:40;14.83;;;7.43;;
69305;SDS011;56427;51.580;4.656;2023-05-31T02:52:05;15.33;;;7.70;;
69305;SDS011;56427;51.580;4.656;2023-05-31T02:54:31;13.03;;;7.47;;
69305;SDS011;56427;51.580;4.656;2023-05-31T02:56:56;12.70;;;7.33;;
69305;SDS011;56427;51.580;4.656;2023-05-31T02:59:22;14.23;;;8.03;;
69305;SDS011;56427;51.580;4.656;2023-05-31T03:01:48;14.38;;;7.55;;
69305;SDS011;56427;51.580;4.656;2023-05-31T03:04:13;14.73;;;6.70;;
69305;SDS011;56427;51.580;4.656;2023-05-31T03:06:38;14.90;;;7.83;;
69305;SDS011;56427;51.580;4.656;2023-05-31T03:09:05;14.80;;;7.90;;
69305;SDS011;56427;51.580;4.656;2023-05-31T03:11:30;16.47;;;7.77;;
69305;SDS011;56427;51.580;4.656;2023-05-31T03:13:56;15.30;;;7.63;;
69305;SDS011;56427;51.580;4.656;2023-05-31T03:16:21;16.80;;;9.17;;
69305;SDS011;56427;51.580;4.656;2023-05-31T03:18:48;15.43;;;8.50;;
69305;SDS011;56427;51.580;4.656;2023-05-31T03:21:14;14.75;;;8.00;;
69305;SDS011;56427;51.580;4.656;2023-05-31T03:23:40;15.17;;;8.43;;
69305;SDS011;56427;51.580;4.656;2023-05-31T03:26:05;17.40;;;8.83;;
69305;SDS011;56427;51.580;4.656;2023-05-31T03:28:31;13.93;;;7.73;;
69305;SDS011;56427;51.580;4.656;2023-05-31T03:30:56;17.17;;;8.33;;
69305;SDS011;56427;51.580;4.656;2023-05-31T03:33:21;14.63;;;8.07;;
69305;SDS011;56427;51.580;4.656;2023-05-31T03:35:47;17.98;;;8.32;;
69305;SDS011;56427;51.580;4.656;2023-05-31T03:38:13;15.67;;;7.73;;
69305;SDS011;56427;51.580;4.656;2023-05-31T03:40:38;13.23;;;8.43;;
69305;SDS011;56427;51.580;4.656;2023-05-31T03:43:03;18.73;;;8.27;;
69305;SDS011;56427;51.580;4.656;2023-05-31T03:45:28;13.77;;;7.80;;
69305;SDS011;56427;51.580;4.656;2023-05-31T03:47:54;14.30;;;7.80;;
69305;SDS011;56427;51.580;4.656;2023-05-31T03:50:19;13.10;;;7.43;;
69305;SDS011;56427;51.580;4.656;2023-05-31T03:52:44;19.47;;;8.37;;
69305;SDS011;56427;51.580;4.656;2023-05-31T03:55:10;16.60;;;7.57;;
69305;SDS011;56427;51.580;4.656;2023-05-31T03:57:36;15.37;;;7.60;;
69305;SDS011;56427;51.580;4.656;2023-05-31T04:00:01;13.60;;;7.80;;
69305;SDS011;56427;51.580;4.656;2023-05-31T04:02:27;16.70;;;7.78;;
69305;SDS011;56427;51.580;4.656;2023-05-31T04:04:52;14.97;;;7.53;;
69305;SDS011;56427;51.580;4.656;2023-05-31T04:07:18;18.80;;;8.23;;
69305;SDS011;56427;51.580;4.656;2023-05-31T04:09:43;14.97;;;7.27;;
69305;SDS011;56427;51.580;4.656;2023-05-31T04:12:08;13.90;;;7.80;;
69305;SDS011;56427;51.580;4.656;2023-05-31T04:14:33;16.30;;;8.10;;
69305;SDS011;56427;51.580;4.656;2023-05-31T04:16:59;13.65;;;7.43;;
69305;SDS011;56427;51.580;4.656;2023-05-31T04:19:24;14.70;;;7.20;;
69305;SDS011;56427;51.580;4.656;2023-05-31T04:21:49;14.70;;;7.30;;
69305;SDS011;56427;51.580;4.656;2023-05-31T04:24:15;15.53;;;7.07;;
69305;SDS011;56427;51.580;4.656;2023-05-31T04:26:40;14.47;;;6.63;;
69305;SDS011;56427;51.580;4.656;2023-05-31T04:29:05;15.43;;;7.17;;
69305;SDS011;56427;51.580;4.656;2023-05-31T04:31:31;11.77;;;6.53;;
69305;SDS011;56427;51.580;4.656;2023-05-31T04:34:00;14.73;;;7.32;;
69305;SDS011;56427;51.580;4.656;2023-05-31T04:36:25;12.60;;;6.53;;
69305;SDS011;56427;51.580;4.656;2023-05-31T04:38:51;13.27;;;6.50;;
69305;SDS011;56427;51.580;4.656;2023-05-31T04:41:20;11.43;;;6.55;;
69305;SDS011;56427;51.580;4.656;2023-05-31T04:43:46;10.52;;;5.90;;
69305;SDS011;56427;51.580;4.656;2023-05-31T04:46:12;12.43;;;6.47;;
69305;SDS011;56427;51.580;4.656;2023-05-31T04:48:38;11.75;;;6.35;;
69305;SDS011;56427;51.580;4.656;2023-05-31T04:51:03;12.67;;;7.20;;
69305;SDS011;56427;51.580;4.656;2023-05-31T04:53:29;11.88;;;6.32;;
69305;SDS011;56427;51.580;4.656;2023-05-31T04:55:55;10.00;;;6.53;;
69305;SDS011;56427;51.580;4.656;2023-05-31T04:58:20;11.83;;;6.57;;
69305;SDS011;56427;51.580;4.656;2023-05-31T05:00:45;14.38;;;7.47;;
69305;SDS011;56427;51.580;4.656;2023-05-31T05:03:11;14.13;;;7.30;;
69305;SDS011;56427;51.580;4.656;2023-05-31T05:05:37;14.20;;;7.30;;
69305;SDS011;56427;51.580;4.656;2023-05-31T05:08:02;16.20;;;8.13;;
69305;SDS011;56427;51.580;4.656;2023-05-31T05:10:27;13.23;;;7.50;;
69305;SDS011;56427;51.580;4.656;2023-05-31T05:12:53;13.73;;;7.40;;
69305;SDS011;56427;51.580;4.656;2023-05-31T05:15:18;14.03;;;7.23;;
69305;SDS011;56427;51.580;4.656;2023-05-31T05:17:43;16.43;;;7.87;;
69305;SDS011;56427;51.580;4.656;2023-05-31T05:20:11;11.35;;;6.72;;
69305;SDS011;56427;51.580;4.656;2023-05-31T05:22:36;15.07;;;7.00;;
69305;SDS011;56427;51.580;4.656;2023-05-31T05:25:01;14.03;;;6.87;;
69305;SDS011;56427;51.580;4.656;2023-05-31T05:27:26;12.73;;;7.00;;
69305;SDS011;56427;51.580;4.656;2023-05-31T05:29:51;11.10;;;6.67;;
69305;SDS011;56427;51.580;4.656;2023-05-31T05:32:17;13.13;;;7.17;;
69305;SDS011;56427;51.580;4.656;2023-05-31T05:34:43;12.17;;;6.53;;
69305;SDS011;56427;51.580;4.656;2023-05-31T05:37:09;12.43;;;6.35;;
69305;SDS011;56427;51.580;4.656;2023-05-31T05:39:34;12.20;;;5.77;;
69305;SDS011;56427;51.580;4.656;2023-05-31T05:41:59;16.10;;;6.90;;
69305;SDS011;56427;51.580;4.656;2023-05-31T05:44:26;14.32;;;7.32;;
69305;SDS011;56427;51.580;4.656;2023-05-31T05:46:51;12.73;;;6.93;;
69305;SDS011;56427;51.580;4.656;2023-05-31T05:49:16;13.73;;;6.87;;
69305;SDS011;56427;51.580;4.656;2023-05-31T05:51:42;13.83;;;7.30;;
69305;SDS011;56427;51.580;4.656;2023-05-31T05:54:07;13.30;;;6.70;;
69305;SDS011;56427;51.580;4.656;2023-05-31T05:56:32;11.57;;;7.10;;
69305;SDS011;56427;51.580;4.656;2023-05-31T05:58:57;13.70;;;6.97;;
69305;SDS011;56427;51.580;4.656;2023-05-31T06:01:23;12.77;;;7.20;;
69305;SDS011;56427;51.580;4.656;2023-05-31T06:03:51;12.50;;;7.13;;
69305;SDS011;56427;51.580;4.656;2023-05-31T06:06:17;14.40;;;7.47;;
69305;SDS011;56427;51.580;4.656;2023-05-31T06:08:45;14.70;;;7.80;;
69305;SDS011;56427;51.580;4.656;2023-05-31T06:11:11;14.63;;;7.45;;
69305;SDS011;56427;51.580;4.656;2023-05-31T06:13:36;14.40;;;7.50;;
69305;SDS011;56427;51.580;4.656;2023-05-31T06:16:04;16.13;;;7.37;;
69305;SDS011;56427;51.580;4.656;2023-05-31T06:18:30;15.82;;;7.45;;
69305;SDS011;56427;51.580;4.656;2023-05-31T06:20:56;16.90;;;7.63;;
69305;SDS011;56427;51.580;4.656;2023-05-31T06:23:21;13.47;;;7.30;;
69305;SDS011;56427;51.580;4.656;2023-05-31T06:25:46;15.47;;;8.03;;
69305;SDS011;56427;51.580;4.656;2023-05-31T06:28:11;13.67;;;7.47;;
69305;SDS011;56427;51.580;4.656;2023-05-31T06:30:37;15.00;;;8.03;;
69305;SDS011;56427;51.580;4.656;2023-05-31T06:33:02;13.30;;;6.90;;
69305;SDS011;56427;51.580;4.656;2023-05-31T06:35:28;13.13;;;7.87;;
69305;SDS011;56427;51.580;4.656;2023-05-31T06:37:54;12.27;;;7.63;;
69305;SDS011;56427;51.580;4.656;2023-05-31T06:40:19;14.93;;;7.57;;
69305;SDS011;56427;51.580;4.656;2023-05-31T06:42:44;19.70;;;8.90;;
69305;SDS011;56427;51.580;4.656;2023-05-31T06:45:10;18.27;;;7.53;;
69305;SDS011;56427;51.580;4.656;2023-05-31T06:47:35;15.43;;;8.23;;
69305;SDS011;56427;51.580;4.656;2023-05-31T06:50:00;13.40;;;7.33;;
69305;SDS011;56427;51.580;4.656;2023-05-31T06:52:27;15.33;;;7.97;;
69305;SDS011;56427;51.580;4.656;2023-05-31T06:54:52;13.37;;;7.10;;
69305;SDS011;56427;51.580;4.656;2023-05-31T06:57:17;14.17;;;7.33;;
69305;SDS011;56427;51.580;4.656;2023-05-31T06:59:43;18.47;;;7.30;;
69305;SDS011;56427;51.580;4.656;2023-05-31T07:02:08;17.00;;;7.93;;
69305;SDS011;56427;51.580;4.656;2023-05-31T07:04:33;16.30;;;7.33;;
69305;SDS011;56427;51.580;4.656;2023-05-31T07:06:59;16.00;;;8.67;;
69305;SDS011;56427;51.580;4.656;2023-05-31T07:09:25;13.65;;;7.22;;
69305;SDS011;56427;51.580;4.656;2023-05-31T07:11:50;14.33;;;7.30;;
69305;SDS011;56427;51.580;4.656;2023-05-31T07:14:15;13.80;;;7.53;;
69305;SDS011;56427;51.580;4.656;2023-05-31T07:16:40;17.03;;;7.37;;
69305;SDS011;56427;51.580;4.656;2023-05-31T07:19:06;13.43;;;7.57;;
69305;SDS011;56427;51.580;4.656;2023-05-31T07:21:31;20.27;;;8.47;;
69305;SDS011;56427;51.580;4.656;2023-05-31T07:23:57;15.52;;;7.90;;
69305;SDS011;56427;51.580;4.656;2023-05-31T07:26:22;15.73;;;8.27;;
69305;SDS011;56427;51.580;4.656;2023-05-31T07:28:48;14.73;;;8.50;;
69305;SDS011;56427;51.580;4.656;2023-05-31T07:31:13;14.00;;;8.13;;
69305;SDS011;56427;51.580;4.656;2023-05-31T07:33:40;15.30;;;7.67;;
69305;SDS011;56427;51.580;4.656;2023-05-31T07:36:06;11.55;;;7.30;;
69305;SDS011;56427;51.580;4.656;2023-05-31T07:38:31;16.97;;;8.87;;
69305;SDS011;56427;51.580;4.656;2023-05-31T07:40:57;15.20;;;8.10;;
69305;SDS011;56427;51.580;4.656;2023-05-31T07:43:23;16.90;;;8.03;;
69305;SDS011;56427;51.580;4.656;2023-05-31T07:45:48;15.60;;;8.30;;
69305;SDS011;56427;51.580;4.656;2023-05-31T07:48:13;13.67;;;7.47;;
69305;SDS011;56427;51.580;4.656;2023-05-31T07:50:39;14.07;;;7.57;;
69305;SDS011;56427;51.580;4.656;2023-05-31T07:53:04;14.87;;;7.70;;
69305;SDS011;56427;51.580;4.656;2023-05-31T07:55:29;18.13;;;8.97;;
69305;SDS011;56427;51.580;4.656;2023-05-31T07:57:54;18.40;;;8.03;;
69305;SDS011;56427;51.580;4.656;2023-05-31T08:00:20;17.53;;;7.53;;
69305;SDS011;56427;51.580;4.656;2023-05-31T08:02:45;15.73;;;8.25;;
69305;SDS011;56427;51.580;4.656;2023-05-31T08:05:12;15.67;;;6.90;;
69305;SDS011;56427;51.580;4.656;2023-05-31T08:07:37;14.27;;;8.13;;
69305;SDS011;56427;51.580;4.656;2023-05-31T08:10:03;13.90;;;8.17;;
69305;SDS011;56427;51.580;4.656;2023-05-31T08:12:28;12.90;;;7.90;;
69305;SDS011;56427;51.580;4.656;2023-05-31T08:14:53;17.07;;;7.73;;
69305;SDS011;56427;51.580;4.656;2023-05-31T08:17:19;17.30;;;9.00;;
69305;SDS011;56427;51.580;4.656;2023-05-31T08:19:44;16.97;;;8.30;;
69305;SDS011;56427;51.580;4.656;2023-05-31T08:22:09;15.00;;;8.27;;
69305;SDS011;56427;51.580;4.656;2023-05-31T08:24:35;16.05;;;7.45;;
69305;SDS011;56427;51.580;4.656;2023-05-31T08:27:00;19.97;;;8.73;;
69305;SDS011;56427;51.580;4.656;2023-05-31T08:29:26;18.85;;;8.90;;
69305;SDS011;56427;51.580;4.656;2023-05-31T08:31:52;14.13;;;7.27;;
69305;SDS011;56427;51.580;4.656;2023-05-31T08:34:17;15.63;;;7.60;;
69305;SDS011;56427;51.580;4.656;2023-05-31T08:36:44;14.25;;;7.63;;
69305;SDS011;56427;51.580;4.656;2023-05-31T08:39:09;16.97;;;8.20;;
69305;SDS011;56427;51.580;4.656;2023-05-31T08:44:09;14.70;;;8.30;;
69305;SDS011;56427;51.580;4.656;2023-05-31T08:46:35;14.48;;;8.90;;
69305;SDS011;56427;51.580;4.656;2023-05-31T08:49:10;22.83;;;10.52;;
69305;SDS011;56427;51.580;4.656;2023-05-31T08:51:36;13.57;;;7.13;;
69305;SDS011;56427;51.580;4.656;2023-05-31T08:54:01;16.27;;;8.60;;
69305;SDS011;56427;51.580;4.656;2023-05-31T08:56:27;13.90;;;7.57;;
69305;SDS011;56427;51.580;4.656;2023-05-31T08:58:53;15.48;;;7.47;;
69305;SDS011;56427;51.580;4.656;2023-05-31T09:01:18;14.37;;;7.90;;
69305;SDS011;56427;51.580;4.656;2023-05-31T09:03:45;15.50;;;8.10;;
69305;SDS011;56427;51.580;4.656;2023-05-31T09:06:10;16.90;;;7.93;;
69305;SDS011;56427;51.580;4.656;2023-05-31T09:08:36;14.63;;;8.50;;
69305;SDS011;56427;51.580;4.656;2023-05-31T09:11:01;16.13;;;8.10;;
69305;SDS011;56427;51.580;4.656;2023-05-31T09:13:27;19.03;;;8.73;;
69305;SDS011;56427;51.580;4.656;2023-05-31T09:15:52;15.33;;;7.07;;
69305;SDS011;56427;51.580;4.656;2023-05-31T09:18:21;14.73;;;7.20;;
69305;SDS011;56427;51.580;4.656;2023-05-31T09:20:50;17.00;;;7.90;;
69305;SDS011;56427;51.580;4.656;2023-05-31T09:23:17;14.50;;;7.80;;
69305;SDS011;56427;51.580;4.656;2023-05-31T09:28:08;14.17;;;7.63;;
69305;SDS011;56427;51.580;4.656;2023-05-31T09:30:34;18.60;;;7.30;;
69305;SDS011;56427;51.580;4.656;2023-05-31T09:32:59;15.55;;;7.40;;
69305;SDS011;56427;51.580;4.656;2023-05-31T09:35:25;12.37;;;6.93;;
69305;SDS011;56427;51.580;4.656;2023-05-31T09:37:52;18.17;;;8.27;;
69305;SDS011;56427;51.580;4.656;2023-05-31T09:40:29;16.97;;;7.40;;
69305;SDS011;56427;51.580;4.656;2023-05-31T09:42:55;21.90;;;8.00;;
69305;SDS011;56427;51.580;4.656;2023-05-31T09:45:20;16.47;;;6.83;;
69305;SDS011;56427;51.580;4.656;2023-05-31T09:47:46;16.52;;;7.07;;
69305;SDS011;56427;51.580;4.656;2023-05-31T09:50:18;14.52;;;6.93;;
69305;SDS011;56427;51.580;4.656;2023-05-31T09:52:44;19.73;;;7.57;;
69305;SDS011;56427;51.580;4.656;2023-05-31T09:55:11;16.87;;;7.53;;
69305;SDS011;56427;51.580;4.656;2023-05-31T09:57:38;15.93;;;7.38;;
69305;SDS011;56427;51.580;4.656;2023-05-31T10:00:07;14.20;;;6.45;;
69305;SDS011;56427;51.580;4.656;2023-05-31T10:02:53;19.37;;;7.17;;
69305;SDS011;56427;51.580;4.656;2023-05-31T10:05:19;13.80;;;6.07;;
69305;SDS011;56427;51.580;4.656;2023-05-31T10:07:46;11.32;;;5.95;;
69305;SDS011;56427;51.580;4.656;2023-05-31T10:10:11;14.05;;;6.00;;
69305;SDS011;56427;51.580;4.656;2023-05-31T10:12:58;11.87;;;5.50;;
69305;SDS011;56427;51.580;4.656;2023-05-31T10:15:23;12.18;;;6.63;;
69305;SDS011;56427;51.580;4.656;2023-05-31T10:20:32;15.23;;;5.93;;
69305;SDS011;56427;51.580;4.656;2023-05-31T10:23:01;10.13;;;5.35;;
69305;SDS011;56427;51.580;4.656;2023-05-31T10:25:32;13.13;;;5.68;;
69305;SDS011;56427;51.580;4.656;2023-05-31T10:28:07;12.93;;;5.30;;
69305;SDS011;56427;51.580;4.656;2023-05-31T10:30:34;9.10;;;5.23;;
69305;SDS011;56427;51.580;4.656;2023-05-31T10:33:06;14.82;;;6.00;;
69305;SDS011;56427;51.580;4.656;2023-05-31T10:35:32;12.05;;;5.82;;
69305;SDS011;56427;51.580;4.656;2023-05-31T10:37:57;9.63;;;4.97;;
69305;SDS011;56427;51.580;4.656;2023-05-31T10:42:56;10.27;;;5.13;;
69305;SDS011;56427;51.580;4.656;2023-05-31T10:45:28;15.93;;;5.53;;
69305;SDS011;56427;51.580;4.656;2023-05-31T10:47:56;13.77;;;5.20;;
69305;SDS011;56427;51.580;4.656;2023-05-31T10:50:24;11.60;;;4.67;;
69305;SDS011;56427;51.580;4.656;2023-05-31T10:52:50;14.32;;;4.72;;
69305;SDS011;56427;51.580;4.656;2023-05-31T10:55:19;10.73;;;4.47;;
69305;SDS011;56427;51.580;4.656;2023-05-31T10:57:52;12.63;;;5.27;;
69305;SDS011;56427;51.580;4.656;2023-05-31T11:00:18;12.48;;;4.55;;
69305;SDS011;56427;51.580;4.656;2023-05-31T11:02:47;11.07;;;4.72;;
69305;SDS011;56427;51.580;4.656;2023-05-31T11:05:21;10.23;;;4.88;;
69305;SDS011;56427;51.580;4.656;2023-05-31T11:07:47;8.95;;;4.75;;
69305;SDS011;56427;51.580;4.656;2023-05-31T11:12:51;7.25;;;3.40;;
69305;SDS011;56427;51.580;4.656;2023-05-31T11:15:16;6.80;;;3.47;;
69305;SDS011;56427;51.580;4.656;2023-05-31T11:17:52;10.23;;;3.97;;
69305;SDS011;56427;51.580;4.656;2023-05-31T11:20:18;11.32;;;4.30;;
69305;SDS011;56427;51.580;4.656;2023-05-31T11:22:43;9.13;;;4.10;;
69305;SDS011;56427;51.580;4.656;2023-05-31T11:25:09;8.63;;;3.20;;
69305;SDS011;56427;51.580;4.656;2023-05-31T11:27:45;8.25;;;3.40;;
69305;SDS011;56427;51.580;4.656;2023-05-31T11:30:14;9.75;;;3.58;;
69305;SDS011;56427;51.580;4.656;2023-05-31T11:35:09;11.32;;;3.58;;
69305;SDS011;56427;51.580;4.656;2023-05-31T11:37:37;12.47;;;4.20;;
69305;SDS011;56427;51.580;4.656;2023-05-31T11:40:09;14.32;;;4.75;;
69305;SDS011;56427;51.580;4.656;2023-05-31T11:42:37;8.32;;;3.42;;
69305;SDS011;56427;51.580;4.656;2023-05-31T11:45:03;15.20;;;3.50;;
69305;SDS011;56427;51.580;4.656;2023-05-31T11:47:32;8.40;;;3.15;;
69305;SDS011;56427;51.580;4.656;2023-05-31T11:49:57;15.50;;;4.03;;
69305;SDS011;56427;51.580;4.656;2023-05-31T11:52:23;11.23;;;3.95;;
69305;SDS011;56427;51.580;4.656;2023-05-31T11:54:48;9.97;;;3.40;;
69305;SDS011;56427;51.580;4.656;2023-05-31T11:57:14;8.27;;;2.63;;
69305;SDS011;56427;51.580;4.656;2023-05-31T11:59:41;7.50;;;2.77;;
69305;SDS011;56427;51.580;4.656;2023-05-31T12:02:07;10.23;;;2.97;;
69305;SDS011;56427;51.580;4.656;2023-05-31T12:04:37;11.50;;;2.80;;
69305;SDS011;56427;51.580;4.656;2023-05-31T12:07:02;12.93;;;3.45;;
69305;SDS011;56427;51.580;4.656;2023-05-31T12:09:28;10.30;;;3.10;;
69305;SDS011;56427;51.580;4.656;2023-05-31T12:11:54;10.00;;;3.13;;
69305;SDS011;56427;51.580;4.656;2023-05-31T12:14:20;6.68;;;2.92;;
69305;SDS011;56427;51.580;4.656;2023-05-31T12:16:48;7.43;;;2.93;;
69305;SDS011;56427;51.580;4.656;2023-05-31T12:19:14;10.30;;;2.90;;
69305;SDS011;56427;51.580;4.656;2023-05-31T12:21:40;8.27;;;3.10;;
69305;SDS011;56427;51.580;4.656;2023-05-31T12:24:12;12.80;;;3.13;;
69305;SDS011;56427;51.580;4.656;2023-05-31T12:26:38;16.13;;;3.70;;
69305;SDS011;56427;51.580;4.656;2023-05-31T12:29:04;12.30;;;3.27;;
69305;SDS011;56427;51.580;4.656;2023-05-31T12:31:29;11.20;;;3.43;;
69305;SDS011;56427;51.580;4.656;2023-05-31T12:36:24;11.07;;;2.58;;
69305;SDS011;56427;51.580;4.656;2023-05-31T12:38:55;9.90;;;2.83;;
69305;SDS011;56427;51.580;4.656;2023-05-31T12:41:20;9.80;;;3.13;;
69305;SDS011;56427;51.580;4.656;2023-05-31T12:43:47;8.77;;;3.17;;
69305;SDS011;56427;51.580;4.656;2023-05-31T12:46:16;11.50;;;2.90;;
69305;SDS011;56427;51.580;4.656;2023-05-31T12:48:45;10.25;;;2.80;;
69305;SDS011;56427;51.580;4.656;2023-05-31T12:51:10;9.32;;;2.80;;
69305;SDS011;56427;51.580;4.656;2023-05-31T12:53:38;9.50;;;2.60;;
69305;SDS011;56427;51.580;4.656;2023-05-31T12:56:03;8.55;;;2.70;;
69305;SDS011;56427;51.580;4.656;2023-05-31T12:58:29;9.13;;;2.70;;
69305;SDS011;56427;51.580;4.656;2023-05-31T13:00:54;8.67;;;2.97;;
69305;SDS011;56427;51.580;4.656;2023-05-31T13:03:19;9.40;;;2.77;;
69305;SDS011;56427;51.580;4.656;2023-05-31T13:05:44;13.30;;;3.00;;
69305;SDS011;56427;51.580;4.656;2023-05-31T13:08:10;11.03;;;3.70;;
69305;SDS011;56427;51.580;4.656;2023-05-31T13:10:35;10.63;;;3.10;;
69305;SDS011;56427;51.580;4.656;2023-05-31T13:13:01;8.25;;;2.80;;
69305;SDS011;56427;51.580;4.656;2023-05-31T13:15:28;14.60;;;2.92;;
69305;SDS011;56427;51.580;4.656;2023-05-31T13:17:54;9.80;;;3.23;;
69305;SDS011;56427;51.580;4.656;2023-05-31T13:20:19;10.87;;;3.30;;
69305;SDS011;56427;51.580;4.656;2023-05-31T13:22:44;6.87;;;2.60;;
69305;SDS011;56427;51.580;4.656;2023-05-31T13:25:09;13.13;;;3.33;;
69305;SDS011;56427;51.580;4.656;2023-05-31T13:27:35;9.53;;;3.63;;
69305;SDS011;56427;51.580;4.656;2023-05-31T13:30:00;9.30;;;2.83;;
69305;SDS011;56427;51.580;4.656;2023-05-31T13:32:26;9.38;;;3.03;;
69305;SDS011;56427;51.580;4.656;2023-05-31T13:34:51;10.50;;;3.37;;
69305;SDS011;56427;51.580;4.656;2023-05-31T13:37:16;10.93;;;3.37;;
69305;SDS011;56427;51.580;4.656;2023-05-31T13:39:45;8.20;;;3.40;;
69305;SDS011;56427;51.580;4.656;2023-05-31T13:42:10;7.97;;;2.90;;
69305;SDS011;56427;51.580;4.656;2023-05-31T13:44:36;7.23;;;2.70;;
69305;SDS011;56427;51.580;4.656;2023-05-31T13:47:01;9.03;;;3.00;;
69305;SDS011;56427;51.580;4.656;2023-05-31T13:49:26;9.07;;;2.93;;
69305;SDS011;56427;51.580;4.656;2023-05-31T13:51:52;6.20;;;2.83;;
69305;SDS011;56427;51.580;4.656;2023-05-31T13:54:18;11.40;;;3.22;;
69305;SDS011;56427;51.580;4.656;2023-05-31T13:56:43;10.10;;;3.07;;
69305;SDS011;56427;51.580;4.656;2023-05-31T13:59:08;9.07;;;3.10;;
69305;SDS011;56427;51.580;4.656;2023-05-31T14:01:34;6.20;;;2.90;;
69305;SDS011;56427;51.580;4.656;2023-05-31T14:03:59;7.40;;;2.80;;
69305;SDS011;56427;51.580;4.656;2023-05-31T14:06:24;12.37;;;3.23;;
69305;SDS011;56427;51.580;4.656;2023-05-31T14:08:50;7.33;;;2.80;;
69305;SDS011;56427;51.580;4.656;2023-05-31T14:11:15;8.27;;;3.78;;
69305;SDS011;56427;51.580;4.656;2023-05-31T14:13:41;8.93;;;2.58;;
69305;SDS011;56427;51.580;4.656;2023-05-31T14:16:06;7.93;;;3.27;;
69305;SDS011;56427;51.580;4.656;2023-05-31T14:18:32;12.67;;;3.43;;
69305;SDS011;56427;51.580;4.656;2023-05-31T14:20:57;11.00;;;3.27;;
69305;SDS011;56427;51.580;4.656;2023-05-31T14:23:23;7.83;;;2.83;;
69305;SDS011;56427;51.580;4.656;2023-05-31T14:25:48;10.63;;;3.07;;
69305;SDS011;56427;51.580;4.656;2023-05-31T14:28:13;7.05;;;3.08;;
69305;SDS011;56427;51.580;4.656;2023-05-31T14:30:39;7.53;;;2.97;;
69305;SDS011;56427;51.580;4.656;2023-05-31T14:33:04;7.70;;;3.10;;
69305;SDS011;56427;51.580;4.656;2023-05-31T14:35:29;7.20;;;3.03;;
69305;SDS011;56427;51.580;4.656;2023-05-31T14:37:55;8.30;;;3.90;;
69305;SDS011;56427;51.580;4.656;2023-05-31T14:40:20;9.63;;;3.53;;
69305;SDS011;56427;51.580;4.656;2023-05-31T14:42:45;7.17;;;3.30;;
69305;SDS011;56427;51.580;4.656;2023-05-31T14:45:10;8.13;;;3.30;;
69305;SDS011;56427;51.580;4.656;2023-05-31T14:47:36;7.90;;;3.60;;
69305;SDS011;56427;51.580;4.656;2023-05-31T14:50:02;12.23;;;4.40;;
69305;SDS011;56427;51.580;4.656;2023-05-31T14:52:28;10.23;;;4.70;;
69305;SDS011;56427;51.580;4.656;2023-05-31T14:54:53;11.30;;;5.30;;
69305;SDS011;56427;51.580;4.656;2023-05-31T14:57:19;11.40;;;4.77;;